Time;durP1;ratioP1;P1;durP2;ratioP2;P2;SDS_P1;SDS_P2;PMS_P1;PMS_P2;Temp;Humidity;BMP_temperature;BMP_pressure;BME280_temperature;BME280_humidity;BME280_pressure;Samples;Min_cycle;Max_cycle;Signal;HPM_P1;HPM_P2
2023/12/24 00:00:58;;;;;;;3.22;2.78;;;;;;;;;;5086159;28;20300;-73
2023/12/24 00:03:25;;;;;;;4.05;2.65;;;;;;;;;;5084073;28;20316;-72
2023/12/24 00:05:52;;;;;;;5.50;2.50;;;;;;;;;;5085494;28;20284;-73
2023/12/24 00:08:18;;;;;;;5.15;1.90;;;;;;;;;;5085501;28;20288;-74
2023/12/24 00:10:45;;;;;;;3.53;2.67;;;;;;;-142.91;100.00;56616.03;5086941;28;20331;-73
2023/12/24 00:13:11;;;;;;;4.30;2.17;;;;;;;;;;5086010;28;20288;-72
2023/12/24 00:15:38;;;;;;;3.55;2.22;;;;;;;;;;5086797;28;20206;-72
2023/12/24 00:18:04;;;;;;;2.80;2.20;;;;;;;;;;5085903;28;20229;-73
2023/12/24 00:20:32;;;;;;;2.80;2.00;;;;;;;;;;5086463;28;20507;-73
2023/12/24 00:23:05;;;;;;;5.47;2.08;;;;;;;-142.91;100.00;56616.03;5078936;28;20306;-72
2023/12/24 00:25:32;;;;;;;2.45;1.90;;;;;;;;;;5085445;28;20292;-73
2023/12/24 00:27:58;;;;;;;3.40;2.35;;;;;;;;;;5075425;28;20328;-73
2023/12/24 00:30:26;;;;;;;5.13;2.17;;;;;;;-142.91;100.00;56616.03;5079871;28;20691;-73
2023/12/24 00:32:53;;;;;;;3.00;1.88;;;;;;;-142.91;100.00;56616.03;5085944;28;20221;-72
2023/12/24 00:35:20;;;;;;;3.17;1.92;;;;;;;;;;5085373;28;20292;-72
2023/12/24 00:37:47;;;;;;;3.15;2.10;;;;;;;;;;5086156;28;20297;-73
2023/12/24 00:40:14;;;;;;;7.50;1.90;;;;;;;;;;5085238;28;20293;-73
2023/12/24 00:42:41;;;;;;;2.00;1.90;;;;;;;;;;5085935;28;20280;-72
2023/12/24 00:45:08;;;;;;;3.65;2.20;;;;;;;;;;5085549;28;20225;-73
2023/12/24 00:47:35;;;;;;;5.00;2.15;;;;;;;;;;5086749;28;20236;-72
2023/12/24 00:50:01;;;;;;;12.20;2.65;;;;;;;;;;5084526;28;20730;-72
2023/12/24 00:52:28;;;;;;;5.22;1.83;;;;;;;;;;5080741;28;20400;-72
2023/12/24 00:54:56;;;;;;;4.55;1.65;;;;;;;-142.91;100.00;56616.03;5084679;28;20293;-72
2023/12/24 00:57:22;;;;;;;2.92;2.15;;;;;;;;;;5085808;28;20280;-73
2023/12/24 00:59:48;;;;;;;3.90;1.88;;;;;;;;;;5083395;28;20754;-72
2023/12/24 01:02:15;;;;;;;4.88;1.92;;;;;;;;;;5084910;28;20276;-73
2023/12/24 01:04:41;;;;;;;3.70;1.20;;;;;;;;;;5084245;28;20253;-73
2023/12/24 01:07:07;;;;;;;6.07;1.60;;;;;;;;;;5085364;28;20202;-72
2023/12/24 01:09:36;;;;;;;7.93;1.48;;;;;;;;;;5085019;28;20233;-73
2023/12/24 01:12:04;;;;;;;3.15;1.30;;;;;;;;;;5084934;28;20202;-73
2023/12/24 01:14:30;;;;;;;2.60;1.30;;;;;;;;;;5084831;28;20277;-73
2023/12/24 01:16:57;;;;;;;1.35;1.25;;;;;;;-142.91;100.00;56616.03;5085230;28;20289;-72
2023/12/24 01:19:23;;;;;;;1.40;1.30;;;;;;;-142.91;100.00;56616.03;5085534;28;20194;-72
2023/12/24 01:21:50;;;;;;;3.55;1.70;;;;;;;;;;5084816;28;20205;-72
2023/12/24 01:24:16;;;;;;;1.92;1.20;;;;;;;;;;5083954;28;20697;-73
2023/12/24 01:26:43;;;;;;;2.10;1.25;;;;;;;;;;5085108;28;20305;-72
2023/12/24 01:29:10;;;;;;;1.35;1.25;;;;;;;;;;5084843;28;20710;-72
2023/12/24 01:31:38;;;;;;;4.55;1.48;;;;;;;;;;5085344;28;20301;-72
2023/12/24 01:34:05;;;;;;;2.55;1.40;;;;;;;;;;5085230;28;20661;-72
2023/12/24 01:36:31;;;;;;;1.58;1.40;;;;;;;;;;5085354;28;20217;-73
2023/12/24 01:38:57;;;;;;;1.17;1.15;;;;;;;;;;5085280;28;20332;-73
2023/12/24 01:41:24;;;;;;;1.88;1.25;;;;;;;;;;5084927;28;20738;-74
2023/12/24 01:43:50;;;;;;;1.83;1.17;;;;;;;;;;5084512;28;20316;-73
2023/12/24 01:46:20;;;;;;;1.30;1.20;;;;;;;;;;5084717;28;20284;-73
2023/12/24 01:48:48;;;;;;;2.28;1.30;;;;;;;;;;5084715;28;20293;-73
2023/12/24 01:51:16;;;;;;;2.60;0.90;;;;;;;23.25;100.00;56616.03;5084884;28;20201;-73
2023/12/24 01:53:43;;;;;;;1.48;1.38;;;;;;;;;;5082376;28;20285;-72
2023/12/24 01:56:10;;;;;;;1.67;1.10;;;;;;;-142.91;100.00;56616.03;5083739;28;20201;-72
2023/12/24 01:58:37;;;;;;;1.25;1.10;;;;;;;;;;5083476;28;20288;-72
2023/12/24 02:01:03;;;;;;;2.47;1.33;;;;;;;;;;5082605;28;20284;-72
2023/12/24 02:03:31;;;;;;;1.60;1.20;;;;;;;;;;5083609;28;20284;-74
2023/12/24 02:05:58;;;;;;;2.17;1.10;;;;;;;-142.91;100.00;56616.03;5083658;28;20543;-72
2023/12/24 02:08:24;;;;;;;1.50;1.38;;;;;;;;;;5082477;28;20285;-72
2023/12/24 02:10:50;;;;;;;1.08;0.98;;;;;;;;;;5082961;28;20297;-73
2023/12/24 02:13:17;;;;;;;1.30;1.20;;;;;;;;;;5082288;28;20684;-72
2023/12/24 02:15:45;;;;;;;1.10;1.00;;;;;;;;;;5080358;28;20641;-72
2023/12/24 02:18:11;;;;;;;2.28;1.40;;;;;;;;;;5080436;28;20251;-72
2023/12/24 02:20:39;;;;;;;1.92;1.00;;;;;;;-142.91;100.00;56616.03;5088910;28;20637;-73
2023/12/24 02:23:07;;;;;;;2.17;1.30;;;;;;;;;;5087978;28;20293;-72
2023/12/24 02:25:34;;;;;;;1.10;1.00;;;;;;;;;;5087820;28;20226;-72
2023/12/24 02:28:03;;;;;;;1.60;1.00;;;;;;;;;;5086459;28;20280;-72
2023/12/24 02:30:33;;;;;;;1.70;1.60;;;;;;;;;;5088764;28;20756;-73
2023/12/24 02:33:00;;;;;;;1.15;1.05;;;;;;;;;;5087208;28;20312;-72
2023/12/24 02:35:30;;;;;;;1.30;1.20;;;;;;;;;;5088182;28;20221;-73
2023/12/24 02:37:56;;;;;;;1.00;0.90;;;;;;;;;;5085794;28;20296;-72
2023/12/24 02:40:24;;;;;;;1.90;0.80;;;;;;;;;;5087761;28;20300;-72
2023/12/24 02:42:50;;;;;;;1.00;0.95;;;;;;;;;;5086685;28;20324;-72
2023/12/24 02:45:17;;;;;;;1.27;1.00;;;;;;;;;;5088021;28;20312;-72
2023/12/24 02:47:43;;;;;;;1.42;1.35;;;;;;;;;;5067048;28;20956;-72
2023/12/24 02:50:10;;;;;;;1.20;1.20;;;;;;;;;;5087831;28;20285;-71
2023/12/24 02:52:36;;;;;;;1.10;1.10;;;;;;;;;;5086602;28;20288;-72
2023/12/24 02:55:03;;;;;;;0.93;0.93;;;;;;;;;;5088310;28;20305;-72
2023/12/24 02:57:30;;;;;;;1.00;1.00;;;;;;;;;;5087171;28;20237;-72
2023/12/24 02:59:57;;;;;;;1.20;1.10;;;;;;;;;;5086871;28;20198;-71
2023/12/24 03:02:23;;;;;;;1.20;1.10;;;;;;;;;;5087870;28;20300;-71
2023/12/24 03:04:50;;;;;;;1.25;1.15;;;;;;;;;;5086756;28;20312;-71
2023/12/24 03:07:16;;;;;;;0.90;0.90;;;;;;;;;;5079759;28;20252;-71
2023/12/24 03:09:42;;;;;;;0.95;0.95;;;;;;;;;;5081911;28;20284;-72
2023/12/24 03:12:09;;;;;;;1.40;1.25;;;;;;;;;;5087152;28;20217;-73
2023/12/24 03:14:37;;;;;;;1.17;1.17;;;;;;;;;;5087836;28;20548;-72
2023/12/24 03:17:03;;;;;;;0.95;0.95;;;;;;;;;;5086640;28;20714;-72
2023/12/24 03:19:32;;;;;;;1.27;1.17;;;;;;;;;;5086855;28;20306;-73
2023/12/24 03:21:59;;;;;;;1.10;1.10;;;;;;;;;;5087205;28;20297;-73
2023/12/24 03:24:25;;;;;;;1.30;1.20;;;;;;;;;;5085206;28;20766;-73
2023/12/24 03:26:52;;;;;;;1.20;1.10;;;;;;;;;;5087097;28;20232;-73
2023/12/24 03:29:18;;;;;;;0.90;0.90;;;;;;;;;;5086967;28;20842;-72
2023/12/24 03:31:46;;;;;;;1.00;0.98;;;;;;;;;;5087137;28;20348;-72
2023/12/24 03:34:12;;;;;;;4.03;1.35;;;;;;;;;;5087739;28;20280;-72
2023/12/24 03:36:38;;;;;;;0.90;0.90;;;;;;;;;;5086938;28;20296;-72
2023/12/24 03:39:05;;;;;;;0.88;0.88;;;;;;;;;;5087818;28;20198;-71
2023/12/24 03:41:32;;;;;;;1.27;1.20;;;;;;;-142.91;100.00;56616.03;5086667;28;20393;-72
2023/12/24 03:43:59;;;;;;;1.40;1.00;;;;;;;;;;5086719;28;20791;-72
2023/12/24 03:46:25;;;;;;;1.38;1.33;;;;;;;;;;5086168;28;20321;-73
2023/12/24 03:48:53;;;;;;;1.15;1.10;;;;;;;;;;5087779;28;20285;-72
2023/12/24 03:51:20;;;;;;;1.40;1.30;;;;;;;;;;5086200;28;20229;-72
2023/12/24 03:53:47;;;;;;;1.30;1.20;;;;;;;-142.91;100.00;56616.03;5085468;28;20221;-72
2023/12/24 03:56:13;;;;;;;1.30;1.20;;;;;;;;;;5084631;28;20189;-73
2023/12/24 03:58:39;;;;;;;1.00;1.00;;;;;;;;;;5085677;28;20288;-72
2023/12/24 04:01:07;;;;;;;1.38;1.27;;;;;;;;;;5085107;28;20320;-72
2023/12/24 04:03:33;;;;;;;1.10;1.10;;;;;;;;;;5085880;28;20281;-72
2023/12/24 04:06:01;;;;;;;1.10;1.00;;;;;;;-142.91;100.00;56616.03;5085366;28;20260;-72
2023/12/24 04:08:28;;;;;;;1.45;1.35;;;;;;;;;;5086672;28;20190;-72
2023/12/24 04:10:54;;;;;;;2.65;1.10;;;;;;;;;;5086637;28;20294;-71
2023/12/24 04:13:21;;;;;;;1.48;1.38;;;;;;;;;;5087115;28;20281;-72
2023/12/24 04:15:47;;;;;;;1.67;1.33;;;;;;;;;;5086527;28;20289;-72
2023/12/24 04:18:13;;;;;;;2.05;1.30;;;;;;;;;;5086977;28;20280;-72
2023/12/24 04:20:40;;;;;;;1.30;1.20;;;;;;;;;;5085860;28;20289;-72
2023/12/24 04:23:07;;;;;;;1.45;1.35;;;;;;;;;;5086117;28;20292;-72
2023/12/24 04:25:34;;;;;;;0.98;0.98;;;;;;;;;;5085158;28;20248;-71
2023/12/24 04:28:00;;;;;;;1.77;1.67;;;;;;;;;;5086481;28;20266;-71
2023/12/24 04:30:27;;;;;;;2.03;1.83;;;;;;;-142.91;100.00;56616.03;5086895;28;20284;-72
2023/12/24 04:32:53;;;;;;;1.45;1.35;;;;;;;;;;5086665;28;20244;-71
2023/12/24 04:35:20;;;;;;;1.70;1.60;;;;;;;;;;5086100;28;20190;-72
2023/12/24 04:37:46;;;;;;;1.75;1.50;;;;;;;;;;5086360;28;20201;-71
2023/12/24 04:40:14;;;;;;;2.28;1.80;;;;;;;-142.91;100.00;56616.03;5086243;28;20229;-72
2023/12/24 04:42:41;;;;;;;1.58;1.20;;;;;;;;;;5085082;28;20281;-71
2023/12/24 04:45:07;;;;;;;1.38;1.35;;;;;;;;;;5087101;28;20222;-72
2023/12/24 04:47:34;;;;;;;2.22;1.23;;;;;;;;;;5085656;28;20709;-72
2023/12/24 04:50:00;;;;;;;2.05;1.75;;;;;;;;;;5087010;28;20301;-71
2023/12/24 04:52:26;;;;;;;5.45;1.50;;;;;;;;;;5085160;28;20750;-72
2023/12/24 04:54:53;;;;;;;3.03;1.70;;;;;;;;;;5086166;28;20280;-71
2023/12/24 04:57:21;;;;;;;1.83;1.73;;;;;;;-142.91;100.00;56616.03;5085851;28;20292;-72
2023/12/24 04:59:47;;;;;;;1.92;1.30;;;;;;;;;;5085886;28;20301;-72
2023/12/24 05:02:14;;;;;;;1.63;1.45;;;;;;;;;;5084789;28;20206;-71
2023/12/24 05:04:40;;;;;;;1.80;1.67;;;;;;;;;;5085046;28;20320;-71
2023/12/24 05:07:06;;;;;;;1.80;1.42;;;;;;;;;;5084398;28;20284;-73
2023/12/24 05:09:33;;;;;;;1.52;1.42;;;;;;;;;;5085566;28;20296;-72
2023/12/24 05:11:59;;;;;;;1.55;1.20;;;;;;;;;;5085625;28;20244;-72
2023/12/24 05:14:29;;;;;;;1.65;1.55;;;;;;;;;;5084707;28;20285;-71
2023/12/24 05:16:56;;;;;;;1.00;1.00;;;;;;;;;;5083612;28;20212;-72
2023/12/24 05:19:22;;;;;;;1.35;1.27;;;;;;;;;;5086975;28;20288;-73
2023/12/24 05:21:49;;;;;;;1.10;1.10;;;;;;;;;;5075199;28;20337;-71
2023/12/24 05:24:15;;;;;;;1.42;1.33;;;;;;;;;;5078031;28;20285;-71
2023/12/24 05:26:41;;;;;;;1.83;1.73;;;;;;;-142.91;100.00;56616.03;5071670;28;20317;-73
2023/12/24 05:29:08;;;;;;;1.20;1.20;;;;;;;;;;5081227;28;20292;-71
2023/12/24 05:31:39;;;;;;;6.93;1.38;;;;;;;;;;5074800;28;20253;-73
2023/12/24 05:34:05;;;;;;;1.85;1.25;;;;;;;;;;5081132;28;20287;-73
2023/12/24 05:36:33;;;;;;;2.05;1.27;;;;;;;-142.91;100.00;56616.03;5074361;28;20273;-73
2023/12/24 05:39:00;;;;;;;2.35;2.05;;;;;;;;;;5085936;28;20296;-73
2023/12/24 05:41:27;;;;;;;1.90;1.50;;;;;;;;;;5085787;28;20288;-72
2023/12/24 05:43:53;;;;;;;3.17;1.50;;;;;;;-142.91;100.00;56616.03;5079261;28;20265;-72
2023/12/24 05:46:22;;;;;;;2.17;1.48;;;;;;;;;;5079357;28;20300;-74
2023/12/24 05:48:50;;;;;;;3.90;1.38;;;;;;;;;;5073173;28;20252;-72
2023/12/24 05:51:17;;;;;;;1.60;1.50;;;;;;;;;;5074182;28;20293;-72
2023/12/24 05:53:43;;;;;;;2.40;1.23;;;;;;;;;;5084501;28;20197;-74
2023/12/24 05:56:10;;;;;;;1.33;1.20;;;;;;;-142.91;100.00;56616.03;5088333;28;20281;-72
2023/12/24 05:58:37;;;;;;;1.17;1.08;;;;;;;;;;5089270;28;20201;-71
2023/12/24 06:01:03;;;;;;;1.20;1.10;;;;;;;;;;5087697;28;20300;-72
2023/12/24 06:03:29;;;;;;;1.50;0.90;;;;;;;;;;5087353;28;20288;-71
2023/12/24 06:05:57;;;;;;;1.60;1.50;;;;;;;-142.91;100.00;56616.03;5086676;28;20308;-72
2023/12/24 06:08:24;;;;;;;1.25;1.10;;;;;;;;;;5080323;28;20280;-71
2023/12/24 06:10:50;;;;;;;2.72;1.50;;;;;;;;;;5086291;28;20722;-73
2023/12/24 06:13:17;;;;;;;1.60;1.48;;;;;;;-142.91;100.00;56616.03;5087528;28;20297;-72
2023/12/24 06:15:43;;;;;;;1.30;1.20;;;;;;;;;;5079003;28;20288;-70
2023/12/24 06:18:12;;;;;;;1.55;1.45;;;;;;;-142.91;100.00;56616.03;5078090;28;20281;-73
2023/12/24 06:20:39;;;;;;;1.58;1.48;;;;;;;-142.91;100.00;56616.03;5075920;28;20217;-73
2023/12/24 06:23:06;;;;;;;2.10;1.45;;;;;;;;;;5070106;28;20256;-72
2023/12/24 06:25:34;;;;;;;1.80;1.30;;;;;;;;;;5083917;28;20352;-73
2023/12/24 06:28:00;;;;;;;1.10;1.10;;;;;;;;;;5088938;28;20723;-73
2023/12/24 06:30:27;;;;;;;2.08;1.35;;;;;;;-142.91;100.00;56616.03;5089220;28;20746;-71
2023/12/24 06:32:54;;;;;;;1.45;1.30;;;;;;;;;;5089116;28;20336;-72
2023/12/24 06:35:21;;;;;;;1.80;1.70;;;;;;;-142.91;100.00;56616.03;5074637;28;20289;-72
2023/12/24 06:37:47;;;;;;;2.55;1.55;;;;;;;;;;5085981;28;20277;-72
2023/12/24 06:40:15;;;;;;;2.22;1.70;;;;;;;;;;5085084;28;20225;-72
2023/12/24 06:42:42;;;;;;;1.92;1.50;;;;;;;-142.91;100.00;56616.03;5087623;28;20763;-74
2023/12/24 06:45:08;;;;;;;1.60;1.50;;;;;;;;;;5067690;28;20202;-73
2023/12/24 06:47:35;;;;;;;1.52;1.42;;;;;;;;;;5055280;28;20223;-72
2023/12/24 06:50:01;;;;;;;3.38;1.60;;;;;;;;;;5072014;28;20289;-71
2023/12/24 06:52:27;;;;;;;2.30;1.65;;;;;;;;;;5071548;28;20649;-73
2023/12/24 06:54:54;;;;;;;1.30;1.20;;;;;;;;;;5073919;28;20230;-73
2023/12/24 06:57:22;;;;;;;2.10;1.33;;;;;;;-142.91;100.00;56616.03;5078872;28;20277;-73
2023/12/24 06:59:48;;;;;;;1.30;1.20;;;;;;;;;;5086771;28;20767;-72
2023/12/24 07:02:15;;;;;;;1.95;1.33;;;;;;;;;;5083622;28;20285;-72
2023/12/24 07:04:41;;;;;;;1.20;1.10;;;;;;;;;;5074005;28;20288;-71
2023/12/24 07:07:06;;;;;;;3.08;1.67;;;;;;;;;;5073865;28;20320;-72
2023/12/24 07:09:33;;;;;;;1.30;1.23;;;;;;;;;;5085884;28;20642;-71
2023/12/24 07:11:59;;;;;;;1.25;1.15;;;;;;;;;;5074412;28;20253;-73
2023/12/24 07:14:27;;;;;;;0.77;0.77;;;;;;;;;;5080470;28;20289;-72
2023/12/24 07:16:53;;;;;;;1.60;1.23;;;;;;;;;;5084027;28;20221;-71
2023/12/24 07:19:20;;;;;;;4.32;0.98;;;;;;;;;;5068366;28;20650;-71
2023/12/24 07:21:46;;;;;;;1.48;1.38;;;;;;;-142.91;100.00;56616.03;5069468;28;20293;-72
2023/12/24 07:24:13;;;;;;;1.40;1.30;;;;;;;;;;5072066;28;20206;-73
2023/12/24 07:26:39;;;;;;;1.25;1.15;;;;;;;;;;5068616;28;20797;-71
2023/12/24 07:29:05;;;;;;;1.45;1.33;;;;;;;;;;5069040;28;20289;-73
2023/12/24 07:31:33;;;;;;;1.27;1.20;;;;;;;;;;5068677;28;20308;-71
2023/12/24 07:34:00;;;;;;;2.13;1.35;;;;;;;;;;5068495;28;20304;-71
2023/12/24 07:36:26;;;;;;;2.35;1.27;;;;;;;;;;5069453;28;20266;-73
2023/12/24 07:38:52;;;;;;;5.15;1.60;;;;;;;;;;5069906;28;20881;-73
2023/12/24 07:41:19;;;;;;;1.00;1.00;;;;;;;-142.91;100.00;56616.03;5069099;28;20285;-73
2023/12/24 07:43:45;;;;;;;4.22;2.80;;;;;;;;;;5077667;28;21105;-71
2023/12/24 07:46:12;;;;;;;8.52;4.50;;;;;;;;;;5086790;28;20316;-70
2023/12/24 07:48:39;;;;;;;14.68;10.20;;;;;;;;;;5087204;28;20316;-73
2023/12/24 07:51:06;;;;;;;7.35;5.93;;;;;;;-142.91;100.00;56616.03;5086723;28;20294;-72
2023/12/24 07:53:32;;;;;;;8.43;5.50;;;;;;;;;;5092393;28;20308;-72
2023/12/24 07:55:59;;;;;;;17.13;10.07;;;;;;;;;;5096131;28;20770;-72
2023/12/24 07:58:26;;;;;;;7.47;5.88;;;;;;;;;;5089582;28;20223;-72
2023/12/24 08:00:52;;;;;;;8.68;5.95;;;;;;;-142.91;100.00;56616.03;5087300;28;20288;-71
2023/12/24 08:03:21;;;;;;;12.15;6.90;;;;;;;-142.91;100.00;56616.03;5089178;28;20240;-71
2023/12/24 08:05:49;;;;;;;15.65;6.43;;;;;;;;;;5087207;28;20240;-70
2023/12/24 08:08:15;;;;;;;8.25;5.85;;;;;;;;;;5088950;28;20495;-73
2023/12/24 08:10:42;;;;;;;22.30;13.98;;;;;;;-142.91;100.00;56616.03;5088581;28;20289;-74
2023/12/24 08:13:09;;;;;;;12.82;9.57;;;;;;;-142.91;100.00;56616.03;5088821;28;20213;-74
2023/12/24 08:15:36;;;;;;;18.17;12.20;;;;;;;23.25;100.00;56616.03;5068274;28;20310;-74
2023/12/24 08:18:03;;;;;;;10.63;6.43;;;;;;;;;;5089857;28;20212;-75
2023/12/24 08:20:29;;;;;;;6.65;4.50;;;;;;;;;;5088112;28;20225;-72
2023/12/24 08:22:57;;;;;;;15.90;10.30;;;;;;;-142.91;100.00;56616.03;5087790;28;20285;-73
2023/12/24 08:25:24;;;;;;;4.13;3.35;;;;;;;;;;5091048;28;20214;-72
2023/12/24 08:27:51;;;;;;;8.40;6.43;;;;;;;;;;5086579;28;20308;-73
2023/12/24 08:30:18;;;;;;;5.43;4.72;;;;;;;;;;5085904;28;20230;-72
2023/12/24 08:32:45;;;;;;;4.68;4.00;;;;;;;;;;5091050;28;20304;-72
2023/12/24 08:35:12;;;;;;;7.25;5.78;;;;;;;;;;5089634;28;20202;-72
2023/12/24 08:37:38;;;;;;;5.43;4.00;;;;;;;;;;5094510;28;20209;-73
2023/12/24 08:40:07;;;;;;;2.85;1.27;;;;;;;;;;5088104;28;20229;-72
2023/12/24 08:42:33;;;;;;;1.25;1.10;;;;;;;;;;5088923;28;20289;-72
2023/12/24 08:45:00;;;;;;;1.95;1.85;;;;;;;;;;5079997;28;20194;-73
2023/12/24 08:47:26;;;;;;;23.77;12.75;;;;;;;;;;5086322;28;20313;-73
2023/12/24 08:49:53;;;;;;;7.40;5.93;;;;;;;;;;5083299;28;20272;-74
2023/12/24 08:52:20;;;;;;;6.00;5.45;;;;;;;;;;5080744;28;20305;-72
2023/12/24 08:54:47;;;;;;;5.20;4.70;;;;;;;;;;5080900;28;20209;-73
2023/12/24 08:57:14;;;;;;;5.30;4.72;;;;;;;;;;5085065;28;20731;-73
2023/12/24 08:59:41;;;;;;;8.77;4.88;;;;;;;;;;5091935;28;20197;-71
2023/12/24 09:02:07;;;;;;;5.95;5.35;;;;;;;;;;5094609;28;20679;-72
2023/12/24 09:04:34;;;;;;;5.32;4.60;;;;;;;;;;5091840;28;20285;-72
2023/12/24 09:07:00;;;;;;;5.88;4.80;;;;;;;;;;5086833;28;20255;-72
2023/12/24 09:09:27;;;;;;;6.32;5.38;;;;;;;;;;5092557;28;20284;-73
2023/12/24 09:11:53;;;;;;;4.00;3.60;;;;;;;;;;5097357;28;20233;-71
2023/12/24 09:14:21;;;;;;;4.63;2.53;;;;;;;;;;5102639;28;20236;-72
2023/12/24 09:16:47;;;;;;;2.30;2.10;;;;;;;;;;5099477;28;20237;-73
2023/12/24 09:19:14;;;;;;;2.80;2.40;;;;;;;;;;5095968;28;20614;-71
2023/12/24 09:21:40;;;;;;;1.75;1.65;;;;;;;;;;5088998;28;20652;-73
2023/12/24 09:24:07;;;;;;;1.65;1.55;;;;;;;;;;5093040;28;20706;-72
2023/12/24 09:26:33;;;;;;;4.88;2.58;;;;;;;;;;5093322;28;20253;-74
2023/12/24 09:29:01;;;;;;;3.17;1.45;;;;;;;;;;5094750;28;20204;-73
2023/12/24 09:31:28;;;;;;;4.20;1.70;;;;;;;;;;5096934;28;20201;-71
2023/12/24 09:33:55;;;;;;;2.17;1.92;;;;;;;;;;5092687;28;20229;-74
2023/12/24 09:36:21;;;;;;;4.90;1.75;;;;;;;;;;5099098;28;20734;-73
2023/12/24 09:38:47;;;;;;;1.88;1.42;;;;;;;;;;5101190;28;20347;-73
2023/12/24 09:41:15;;;;;;;4.22;1.70;;;;;;;;;;5096196;28;20730;-73
2023/12/24 09:43:42;;;;;;;1.45;1.38;;;;;;;;;;5093010;28;20251;-73
2023/12/24 09:46:09;;;;;;;2.20;1.60;;;;;;;-142.91;0.00;56616.03;5085541;28;20296;-73
2023/12/24 09:48:37;;;;;;;1.30;1.27;;;;;;;;;;5087071;28;20288;-73
2023/12/24 09:51:06;;;;;;;1.92;1.52;;;;;;;;;;5084553;28;20658;-74
2023/12/24 09:53:32;;;;;;;2.13;1.88;;;;;;;;;;5083549;28;20848;-73
2023/12/24 09:55:59;;;;;;;2.95;1.38;;;;;;;;;;5084318;28;20280;-74
2023/12/24 09:58:26;;;;;;;2.30;1.70;;;;;;;;;;5089867;28;20726;-72
2023/12/24 10:00:52;;;;;;;1.85;1.60;;;;;;;;;;5084783;28;20253;-73
2023/12/24 10:03:18;;;;;;;1.80;1.60;;;;;;;;;;5085420;28;20210;-73
2023/12/24 10:06:02;;;;;;;3.53;1.70;;;;;;;;;;5083171;28;20301;-73
2023/12/24 10:08:28;;;;;;;1.88;1.55;;;;;;;;;;5083971;28;20205;-74
2023/12/24 10:10:55;;;;;;;4.60;1.45;;;;;;;;;;5087972;28;20733;-73
2023/12/24 10:13:21;;;;;;;3.47;1.30;;;;;;;;;;5088927;28;20308;-73
2023/12/24 10:15:48;;;;;;;1.40;1.30;;;;;;;;;;5083574;28;20198;-73
2023/12/24 10:18:18;;;;;;;3.65;2.35;;;;;;;;;;5085723;28;20276;-73
2023/12/24 10:20:44;;;;;;;5.80;2.65;;;;;;;;;;5090815;28;20277;-74
2023/12/24 10:23:12;;;;;;;2.25;2.00;;;;;;;;;;5083192;28;20288;-73
2023/12/24 10:25:38;;;;;;;1.60;1.50;;;;;;;;;;5083682;28;20229;-72
2023/12/24 10:28:05;;;;;;;3.30;1.80;;;;;;;;;;5083754;28;20700;-73
2023/12/24 10:30:32;;;;;;;1.50;1.40;;;;;;;;;;5082927;28;20197;-72
2023/12/24 10:33:08;;;;;;;5.60;2.95;;;;;;;23.26;100.00;56616.03;5083568;28;20309;-73
2023/12/24 10:35:35;;;;;;;5.05;2.38;;;;;;;;;;5085443;28;20195;-75
2023/12/24 10:38:06;;;;;;;2.95;1.65;;;;;;;;;;5086171;28;20197;-73
2023/12/24 10:40:34;;;;;;;3.67;1.38;;;;;;;;;;5086659;28;20312;-73
2023/12/24 10:43:00;;;;;;;2.08;1.75;;;;;;;;;;5090913;28;20284;-74
2023/12/24 10:45:27;;;;;;;2.10;1.30;;;;;;;;;;5089189;28;20241;-73
2023/12/24 10:47:53;;;;;;;2.53;1.40;;;;;;;;;;5087453;28;20312;-73
2023/12/24 10:50:20;;;;;;;2.65;1.52;;;;;;;;;;5088652;28;20284;-72
2023/12/24 10:52:47;;;;;;;4.07;1.50;;;;;;;;;;5087470;28;20235;-73
2023/12/24 10:55:13;;;;;;;1.60;1.50;;;;;;;;;;5065867;28;20292;-72
2023/12/24 10:57:47;;;;;;;2.70;1.67;;;;;;;;;;5088368;28;20218;-73
2023/12/24 11:00:14;;;;;;;1.70;1.20;;;;;;;;;;5088943;28;20653;-73
2023/12/24 11:02:43;;;;;;;7.55;2.30;;;;;;;;;;5067287;28;20221;-72
2023/12/24 11:05:10;;;;;;;1.80;1.33;;;;;;;;;;5073609;28;20228;-73
2023/12/24 11:07:39;;;;;;;3.72;1.50;;;;;;;;;;5089118;28;20315;-72
2023/12/24 11:10:06;;;;;;;1.75;1.65;;;;;;;;;;5096765;28;20205;-72
2023/12/24 11:12:33;;;;;;;3.30;2.00;;;;;;;;;;5086467;28;20293;-73
2023/12/24 11:15:00;;;;;;;3.63;1.30;;;;;;;;;;5092221;28;20288;-73
2023/12/24 11:17:41;;;;;;;1.35;1.25;;;;;;;;;;5088230;28;20215;-76
2023/12/24 11:20:29;;;;;;;3.50;1.40;;;;;;;23.26;100.00;56616.03;5084949;28;20220;-72
2023/12/24 11:23:09;;;;;;;4.68;3.25;;;;;;;;;;5087259;28;20225;-72
2023/12/24 11:25:36;;;;;;;4.22;2.30;;;;;;;;;;5088665;28;20232;-73
2023/12/24 11:28:03;;;;;;;3.75;1.50;;;;;;;;;;5090069;28;20261;-74
2023/12/24 11:30:51;;;;;;;11.88;1.40;;;;;;;;;;5088783;28;20201;-72
2023/12/24 11:33:43;;;;;;;1.67;1.58;;;;;;;;;;5093944;28;20316;-72
2023/12/24 11:36:11;;;;;;;5.47;2.33;;;;;;;;;;5088743;28;20296;-73
2023/12/24 11:38:40;;;;;;;2.15;1.95;;;;;;;;;;5088095;28;20221;-75
2023/12/24 11:41:07;;;;;;;5.63;1.77;;;;;;;;;;5090216;28;20284;-73
2023/12/24 11:43:33;;;;;;;4.22;1.70;;;;;;;;;;5087573;28;20256;-73
2023/12/24 11:46:02;;;;;;;4.93;1.55;;;;;;;;;;5087673;28;20236;-74
2023/12/24 11:48:29;;;;;;;2.33;2.13;;;;;;;;;;5089442;28;20309;-74
2023/12/24 11:51:01;;;;;;;2.35;1.70;;;;;;;;;;5095714;28;20284;-72
2023/12/24 11:53:28;;;;;;;1.77;1.38;;;;;;;;;;5090546;28;20285;-75
2023/12/24 11:56:03;;;;;;;2.50;1.83;;;;;;;;;;5087396;28;20229;-74
2023/12/24 11:58:29;;;;;;;8.52;1.92;;;;;;;;;;5089961;28;20271;-74
2023/12/24 12:00:55;;;;;;;5.28;2.58;;;;;;;;;;5097424;28;20300;-73
2023/12/24 12:03:23;;;;;;;7.03;2.42;;;;;;;;;;5091774;28;20307;-72
2023/12/24 12:05:50;;;;;;;5.22;3.55;;;;;;;;;;5090443;28;20300;-74
2023/12/24 12:08:16;;;;;;;3.38;1.95;;;;;;;;;;5094835;28;20309;-72
2023/12/24 12:10:42;;;;;;;6.05;3.10;;;;;;;;;;5089653;28;20296;-74
2023/12/24 12:13:09;;;;;;;6.63;3.25;;;;;;;;;;5090846;28;20277;-72
2023/12/24 12:15:35;;;;;;;3.85;3.03;;;;;;;;;;5085393;28;20312;-73
2023/12/24 12:18:01;;;;;;;5.97;2.17;;;;;;;;;;5068693;28;20687;-72
2023/12/24 12:20:30;;;;;;;4.53;2.20;;;;;;;;;;5057894;28;20201;-72
2023/12/24 12:22:57;;;;;;;8.07;2.28;;;;;;;;;;5082037;28;20198;-73
2023/12/24 12:25:23;;;;;;;7.57;2.88;;;;;;;;;;5084102;28;20293;-72
2023/12/24 12:27:50;;;;;;;3.90;1.95;;;;;;;23.25;100.00;56616.03;5084747;28;20324;-72
2023/12/24 12:30:15;;;;;;;6.30;2.92;;;;;;;;;;5084665;28;20285;-72
2023/12/24 12:32:42;;;;;;;7.20;3.10;;;;;;;23.25;100.00;56616.03;5088022;28;20304;-74
2023/12/24 12:35:10;;;;;;;6.32;1.95;;;;;;;;;;5084745;28;20731;-75
2023/12/24 12:37:38;;;;;;;5.60;2.50;;;;;;;;;;5086197;28;20225;-74
2023/12/24 12:40:05;;;;;;;7.55;2.10;;;;;;;;;;5086571;28;20209;-73
2023/12/24 12:42:31;;;;;;;2.53;1.63;;;;;;;;;;5091542;28;20232;-74
2023/12/24 12:44:58;;;;;;;4.25;2.00;;;;;;;-142.91;100.00;56616.03;5088863;28;20226;-73
2023/12/24 12:47:24;;;;;;;3.25;1.63;;;;;;;;;;5090151;28;20304;-76
2023/12/24 12:49:51;;;;;;;3.50;2.00;;;;;;;;;;5086057;28;20296;-74
2023/12/24 12:52:18;;;;;;;3.47;2.45;;;;;;;;;;5085414;28;20206;-75
2023/12/24 12:54:46;;;;;;;5.63;1.63;;;;;;;;;;5089102;28;20654;-73
2023/12/24 12:57:27;;;;;;;4.55;3.28;;;;;;;;;;5094219;28;20742;-73
2023/12/24 13:00:00;;;;;;;4.05;2.05;;;;;;;;;;5087352;28;20235;-72
2023/12/24 13:02:26;;;;;;;22.10;6.95;;;;;;;;;;5091165;28;20321;-73
2023/12/24 13:04:53;;;;;;;8.35;5.50;;;;;;;;;;5086792;28;20706;-75
2023/12/24 13:07:19;;;;;;;14.80;2.67;;;;;;;;;;5081285;28;20229;-75
2023/12/24 13:09:49;;;;;;;5.20;3.20;;;;;;;;;;5084964;28;20708;-75
2023/12/24 13:12:19;;;;;;;7.93;4.05;;;;;;;23.25;100.00;56616.03;5088256;28;20662;-74
2023/12/24 13:14:52;;;;;;;5.43;4.15;;;;;;;23.25;100.00;56616.03;5088829;28;20205;-74
2023/12/24 13:17:22;;;;;;;11.68;4.50;;;;;;;;;;5084270;28;20293;-73
2023/12/24 13:19:49;;;;;;;7.18;4.65;;;;;;;;;;5085771;28;20678;-72
2023/12/24 13:22:15;;;;;;;9.00;4.57;;;;;;;;;;5085604;28;20727;-72
2023/12/24 13:24:41;;;;;;;6.88;4.25;;;;;;;;;;5087822;28;20240;-73
2023/12/24 13:27:09;;;;;;;4.20;2.92;;;;;;;;;;5083559;28;20233;-72
2023/12/24 13:29:36;;;;;;;4.25;2.42;;;;;;;;;;5089301;28;20284;-73
2023/12/24 13:32:02;;;;;;;2.03;1.80;;;;;;;;;;5085910;28;20221;-72
2023/12/24 13:34:28;;;;;;;8.20;2.90;;;;;;;;;;5089395;28;20293;-75
2023/12/24 13:36:55;;;;;;;5.90;2.75;;;;;;;;;;5091842;28;20280;-73
2023/12/24 13:39:22;;;;;;;5.70;2.22;;;;;;;;;;5085913;28;20201;-72
2023/12/24 13:41:48;;;;;;;4.05;2.35;;;;;;;;;;5087262;28;20285;-73
2023/12/24 13:44:16;;;;;;;2.55;2.33;;;;;;;;;;5088081;28;20311;-74
2023/12/24 13:46:42;;;;;;;3.88;1.55;;;;;;;;;;5086798;28;20233;-74
2023/12/24 13:49:09;;;;;;;3.58;2.03;;;;;;;;;;5086912;28;20252;-75
2023/12/24 13:51:36;;;;;;;3.88;2.75;;;;;;;;;;5092469;28;20212;-74
2023/12/24 13:54:02;;;;;;;11.80;3.50;;;;;;;;;;5090755;28;20197;-74
2023/12/24 13:56:29;;;;;;;4.15;3.50;;;;;;;;;;5085913;28;20281;-75
2023/12/24 13:58:56;;;;;;;5.07;2.05;;;;;;;;;;5085635;28;20194;-75
2023/12/24 14:01:23;;;;;;;8.77;2.33;;;;;;;;;;5075186;28;20205;-74
2023/12/24 14:03:50;;;;;;;8.50;2.38;;;;;;;-142.91;100.00;56616.03;5069342;28;20861;-74
2023/12/24 14:06:16;;;;;;;4.25;2.17;;;;;;;;;;5072001;28;20283;-74